Petersfield, United Kingdom
Current Conditions -  °F | °C
As of 4:50 PM on Tuesday 21 Oct 2014 (Local Time) from EGVO Reporting Station
Few Clouds Few Clouds  
Wind Chill: 54°   Ceiling: Unl
Heat Index: 54°   Visibility: 6mi
Dew Point: 34°   Wind: 25mph
Humidity: 47%   Direction: 270°W
Pressure: 29.88"   Gusts: 37mph
Location:  51°N, 0.93°W
Report Text: EGVO 211550Z 27022G32KT 9999 FEW040 12/01 Q1012 BLU NOSIG
Loading
Personal Weather Stations






























Interactive Weather Map
Tropical Storm Tracking
New forecast layout! Learn more

10-Day Weather Forecast

Advertisements
Track Severe Weather on mobile